Time;durP1;ratioP1;P1;durP2;ratioP2;P2;SDS_P1;SDS_P2;PMS_P1;PMS_P2;Temp;Humidity;BMP_temperature;BMP_pressure;BME280_temperature;BME280_humidity;BME280_pressure;Samples;Min_cycle;Max_cycle;Signal;HPM_P1;HPM_P2
2023/10/24 00:01:16;;;;;;;0.22;0.22;;;11.50;99.90;;;;;;4981530;28;20085;-65
2023/10/24 00:03:41;;;;;;;0.30;0.30;;;11.40;99.90;;;;;;4987673;28;20048;-65
2023/10/24 00:06:07;;;;;;;0.05;0.05;;;11.40;99.90;;;;;;4985096;28;20482;-65
2023/10/24 00:08:33;;;;;;;0.10;0.10;;;11.50;99.90;;;;;;4989105;28;20056;-65
2023/10/24 00:11:03;;;;;;;0.10;0.10;;;11.40;99.90;;;;;;4989131;28;20038;-65
2023/10/24 00:13:29;;;;;;;0.20;0.20;;;11.40;99.90;;;;;;4985934;28;20104;-65
2023/10/24 00:15:56;;;;;;;0.10;0.10;;;11.40;99.90;;;;;;4987855;28;20042;-65
2023/10/24 00:18:21;;;;;;;0.10;0.10;;;11.40;99.90;;;;;;4988542;28;21051;-65
2023/10/24 00:20:47;;;;;;;0.10;0.10;;;11.40;99.90;;;;;;4987726;28;20048;-65
2023/10/24 00:23:12;;;;;;;0.20;0.20;;;11.40;99.90;;;;;;4984153;28;20398;-65
2023/10/24 00:25:38;;;;;;;0.20;0.20;;;11.30;99.90;;;;;;4989599;28;20050;-65
2023/10/24 00:28:03;;;;;;;0.20;0.20;;;11.30;99.90;;;;;;4977585;28;20047;-65
2023/10/24 00:30:29;;;;;;;0.10;0.10;;;11.30;99.90;;;;;;4980573;28;20055;-65
2023/10/24 00:32:54;;;;;;;0.15;0.15;;;11.30;99.90;;;;;;4982970;28;20045;-65
2023/10/24 00:35:20;;;;;;;0.08;0.08;;;11.30;99.90;;;;;;4990208;28;20046;-65
2023/10/24 00:37:46;;;;;;;0.10;0.10;;;11.30;99.90;;;;;;4999620;28;20458;-65
2023/10/24 00:40:12;;;;;;;0.20;0.20;;;11.30;99.90;;;;;;4984941;28;20047;-65
2023/10/24 00:42:37;;;;;;;0.10;0.10;;;11.30;99.90;;;;;;4989847;28;20082;-65
2023/10/24 00:45:03;;;;;;;0.32;0.32;;;11.20;99.90;;;;;;4989606;28;20084;-65
2023/10/24 00:47:29;;;;;;;1.13;0.63;;;11.30;99.90;;;;;;4980677;28;20073;-65
2023/10/24 00:49:55;;;;;;;0.28;0.28;;;11.30;99.90;;;;;;4987250;28;20450;-65
2023/10/24 00:52:21;;;;;;;0.10;0.10;;;11.30;99.90;;;;;;4989071;28;20870;-65
2023/10/24 00:54:47;;;;;;;0.10;0.10;;;11.40;99.90;;;;;;4984834;28;20121;-65
2023/10/24 00:57:13;;;;;;;0.98;0.98;;;11.30;99.90;;;;;;4985913;28;20133;-66
2023/10/24 00:59:40;;;;;;;0.65;0.60;;;11.30;99.90;;;;;;4978324;28;20058;-65
2023/10/24 01:02:07;;;;;;;0.25;0.25;;;11.30;99.90;;;;;;4987723;28;20537;-65
2023/10/24 01:04:33;;;;;;;0.10;0.10;;;11.30;99.90;;;;;;4988905;28;20081;-65
2023/10/24 01:06:59;;;;;;;0.10;0.10;;;11.20;99.90;;;;;;4983532;28;20074;-65
2023/10/24 01:09:25;;;;;;;0.10;0.10;;;11.20;99.90;;;;;;4986670;28;20533;-65
2023/10/24 01:11:53;;;;;;;0.63;0.63;;;11.20;99.90;;;;;;4988366;28;20051;-66
2023/10/24 01:14:19;;;;;;;0.32;0.32;;;11.20;99.90;;;;;;4983929;28;20038;-66
2023/10/24 01:16:45;;;;;;;0.43;0.30;;;11.20;99.90;;;;;;4988615;28;20052;-66
2023/10/24 01:19:11;;;;;;;0.32;0.32;;;11.20;99.90;;;;;;4989943;28;20046;-65
2023/10/24 01:21:43;;;;;;;0.38;0.38;;;11.20;99.90;;;;;;4987448;28;20046;-65
2023/10/24 01:24:10;;;;;;;0.08;0.08;;;11.20;99.90;;;;;;4984994;28;20379;-66
2023/10/24 01:26:37;;;;;;;0.20;0.20;;;11.20;99.90;;;;;;4986362;28;20054;-66
2023/10/24 01:29:03;;;;;;;0.10;0.10;;;11.20;99.90;;;;;;4979083;28;20410;-65
2023/10/24 01:31:28;;;;;;;0.10;0.10;;;11.20;99.90;;;;;;4987283;28;20088;-65
2023/10/24 01:33:54;;;;;;;0.10;0.10;;;11.20;99.90;;;;;;4989283;28;20038;-65
2023/10/24 01:36:20;;;;;;;0.40;0.40;;;11.20;99.90;;;;;;4985236;28;20555;-65
2023/10/24 01:38:45;;;;;;;0.20;0.20;;;11.20;99.90;;;;;;4980944;28;20039;-66
2023/10/24 01:41:11;;;;;;;0.20;0.20;;;11.20;99.90;;;;;;4987563;28;20263;-65
2023/10/24 01:43:36;;;;;;;0.30;0.30;;;11.20;99.90;;;;;;4989140;28;20451;-65
2023/10/24 01:46:02;;;;;;;0.43;0.43;;;11.20;99.90;;;;;;4979136;28;20554;-66
2023/10/24 01:48:27;;;;;;;0.65;0.65;;;11.20;99.90;;;;;;4987206;28;20042;-66
2023/10/24 01:50:53;;;;;;;0.10;0.10;;;11.20;99.90;;;;;;4989815;28;20049;-66
2023/10/24 01:53:19;;;;;;;0.40;0.40;;;11.20;99.90;;;;;;4979784;28;20043;-65
2023/10/24 01:55:44;;;;;;;0.10;0.10;;;11.10;99.90;;;;;;4987828;28;20057;-65
2023/10/24 01:58:10;;;;;;;0.10;0.10;;;11.20;99.90;;;;;;4988566;28;20163;-66
2023/10/24 02:00:35;;;;;;;0.25;0.25;;;11.10;99.90;;;;;;4981159;28;20574;-65
2023/10/24 02:03:01;;;;;;;3.72;1.38;;;11.20;99.90;;;;;;4982327;28;20418;-65
2023/10/24 02:05:27;;;;;;;0.73;0.73;;;11.10;99.90;;;;;;4979802;28;20046;-65
2023/10/24 02:07:53;;;;;;;0.20;0.17;;;11.10;99.90;;;;;;4986331;28;20141;-65
2023/10/24 02:10:18;;;;;;;0.10;0.10;;;11.10;99.90;;;;;;4988754;28;20070;-65
2023/10/24 02:12:46;;;;;;;0.05;0.05;;;11.10;99.90;;;;;;4992737;28;20034;-65
2023/10/24 02:15:11;;;;;;;0.15;0.15;;;11.10;99.90;;;;;;4992208;28;20050;-65
2023/10/24 02:17:37;;;;;;;0.40;0.40;;;11.10;99.90;;;;;;4979116;28;20105;-65
2023/10/24 02:20:04;;;;;;;0.47;0.47;;;11.10;99.90;;;;;;4990700;28;20136;-66
2023/10/24 02:22:31;;;;;;;0.10;0.10;;;11.10;99.90;;;;;;4987073;28;20065;-65
2023/10/24 02:24:57;;;;;;;0.00;0.00;;;11.00;99.90;;;;;;4991887;28;20042;-65
2023/10/24 02:27:23;;;;;;;0.00;0.00;;;11.10;99.90;;;;;;4988448;28;20379;-65
2023/10/24 02:29:48;;;;;;;0.13;0.13;;;11.10;99.90;;;;;;4988840;28;20078;-65
2023/10/24 02:32:14;;;;;;;0.10;0.10;;;11.10;99.90;;;;;;4992004;28;20043;-65
2023/10/24 02:34:39;;;;;;;0.10;0.10;;;11.10;99.90;;;;;;4988901;28;20125;-65
2023/10/24 02:37:05;;;;;;;0.00;0.00;;;11.10;99.90;;;;;;4982204;28;20167;-65
2023/10/24 02:39:31;;;;;;;0.35;0.25;;;11.10;99.90;;;;;;4988732;28;20057;-65
2023/10/24 02:41:57;;;;;;;0.13;0.13;;;11.10;99.90;;;;;;4985170;28;20050;-66
2023/10/24 02:44:22;;;;;;;0.10;0.10;;;11.10;99.90;;;;;;5006282;28;20410;-66
2023/10/24 02:46:48;;;;;;;0.10;0.10;;;11.10;99.90;;;;;;4985074;28;20082;-66
2023/10/24 02:49:14;;;;;;;0.75;0.75;;;11.10;99.90;;;;;;4988130;28;20046;-65
2023/10/24 02:51:40;;;;;;;0.05;0.05;;;11.10;99.90;;;;;;4987264;28;20074;-65
2023/10/24 02:54:06;;;;;;;0.40;0.38;;;11.10;99.90;;;;;;4989596;28;20431;-65
2023/10/24 02:56:31;;;;;;;0.38;0.38;;;11.20;99.90;;;;;;4986803;28;20089;-66
2023/10/24 02:58:57;;;;;;;0.20;0.20;;;11.10;99.90;;;;;;4985146;28;20619;-66
2023/10/24 03:01:23;;;;;;;0.10;0.10;;;11.10;99.90;;;;;;4986766;28;20051;-65
2023/10/24 03:03:48;;;;;;;0.10;0.10;;;11.10;99.90;;;;;;4988482;28;20042;-66
2023/10/24 03:06:18;;;;;;;0.20;0.20;;;11.10;99.90;;;;;;4987210;28;20057;-66
2023/10/24 03:08:44;;;;;;;0.20;0.20;;;11.10;99.90;;;;;;4987285;28;20114;-66
2023/10/24 03:11:10;;;;;;;0.10;0.10;;;11.10;99.90;;;;;;4992222;28;20594;-66
2023/10/24 03:13:36;;;;;;;0.10;0.10;;;11.10;99.90;;;;;;4990461;28;20046;-65
2023/10/24 03:16:05;;;;;;;0.20;0.20;;;11.10;99.90;;;;;;4985012;28;20529;-65
2023/10/24 03:18:31;;;;;;;1.10;0.65;;;11.10;99.90;;;;;;4986351;28;20486;-65
2023/10/24 03:21:07;;;;;;;0.20;0.20;;;11.10;99.90;;;;;;4981825;28;20049;-66
2023/10/24 03:23:32;;;;;;;1.23;0.82;;;11.10;99.90;;;;;;4991227;28;20129;-66
2023/10/24 03:25:59;;;;;;;0.00;0.00;;;11.10;99.90;;;;;;4990822;28;20180;-65
2023/10/24 03:28:25;;;;;;;0.45;0.45;;;11.10;99.90;;;;;;4982566;28;20058;-66
2023/10/24 03:31:03;;;;;;;0.00;0.00;;;11.10;99.90;;;;;;4988575;28;20055;-65
2023/10/24 03:33:30;;;;;;;0.10;0.10;;;11.10;99.90;;;;;;4983166;28;20046;-65
2023/10/24 03:35:55;;;;;;;0.17;0.17;;;11.10;99.90;;;;;;4989960;28;20122;-65
2023/10/24 03:38:21;;;;;;;0.10;0.10;;;11.10;99.90;;;;;;4991229;28;20909;-65
2023/10/24 03:40:46;;;;;;;0.15;0.15;;;11.20;99.90;;;;;;4984640;28;20046;-65
2023/10/24 03:43:12;;;;;;;1.17;1.08;;;11.10;99.90;;;;;;4989666;28;20485;-65
2023/10/24 03:45:37;;;;;;;0.10;0.10;;;11.20;99.90;;;;;;4990835;28;20053;-65
2023/10/24 03:48:04;;;;;;;0.22;0.22;;;11.20;99.90;;;;;;4987646;28;20049;-65
2023/10/24 03:50:29;;;;;;;0.15;0.15;;;11.20;99.90;;;;;;4986833;28;20046;-65
2023/10/24 03:52:55;;;;;;;0.10;0.10;;;11.20;99.90;;;;;;4990625;28;20042;-65
2023/10/24 03:55:20;;;;;;;0.10;0.10;;;11.30;99.90;;;;;;4984322;28;20065;-66
2023/10/24 03:57:46;;;;;;;0.00;0.00;;;11.30;99.90;;;;;;4984284;28;20057;-66
2023/10/24 04:00:12;;;;;;;0.10;0.10;;;11.20;99.90;;;;;;4988160;28;20070;-65
2023/10/24 04:02:38;;;;;;;0.05;0.05;;;11.30;99.90;;;;;;4984115;28;20054;-65
2023/10/24 04:05:05;;;;;;;0.00;0.00;;;11.30;99.90;;;;;;4990030;28;20068;-65
2023/10/24 04:07:30;;;;;;;0.08;0.08;;;11.30;99.90;;;;;;4981896;28;20116;-65
2023/10/24 04:09:57;;;;;;;0.10;0.10;;;11.30;99.90;;;;;;4989860;28;20478;-65
2023/10/24 04:12:22;;;;;;;0.17;0.17;;;11.20;99.90;;;;;;4985879;28;20754;-65
2023/10/24 04:14:48;;;;;;;0.25;0.25;;;11.30;99.90;;;;;;4989393;28;20097;-66
2023/10/24 04:17:13;;;;;;;0.05;0.05;;;11.30;99.90;;;;;;4987988;28;20046;-65
2023/10/24 04:19:39;;;;;;;0.63;0.57;;;11.30;99.90;;;;;;4987971;28;20561;-65
2023/10/24 04:22:04;;;;;;;0.00;0.00;;;11.30;99.90;;;;;;4982935;28;20477;-65
2023/10/24 04:24:30;;;;;;;0.17;0.17;;;11.30;99.90;;;;;;4983567;28;20116;-66
2023/10/24 04:26:56;;;;;;;0.05;0.05;;;11.30;99.90;;;;;;4983510;28;20042;-65
2023/10/24 04:29:22;;;;;;;1.15;0.90;;;11.30;99.90;;;;;;4981325;28;20050;-65
2023/10/24 04:31:49;;;;;;;0.03;0.03;;;11.30;99.90;;;;;;4982381;28;20053;-65
2023/10/24 04:34:14;;;;;;;0.10;0.10;;;11.30;99.90;;;;;;4980995;28;20082;-65
2023/10/24 04:36:40;;;;;;;0.13;0.13;;;11.40;99.90;;;;;;4982914;28;20078;-65
2023/10/24 04:39:06;;;;;;;0.05;0.05;;;11.40;99.90;;;;;;4980566;28;20196;-65
2023/10/24 04:41:31;;;;;;;0.13;0.13;;;11.40;99.90;;;;;;4983299;28;20104;-65
2023/10/24 04:43:57;;;;;;;0.10;0.10;;;11.40;99.90;;;;;;4981208;28;20145;-65
2023/10/24 04:46:23;;;;;;;0.10;0.10;;;11.40;99.90;;;;;;4984763;28;20046;-65
2023/10/24 04:48:49;;;;;;;0.20;0.15;;;11.40;99.90;;;;;;4985307;28;20484;-65
2023/10/24 04:51:15;;;;;;;0.10;0.10;;;11.40;99.90;;;;;;4982113;28;20434;-65
2023/10/24 04:53:40;;;;;;;0.05;0.05;;;11.50;99.90;;;;;;4986784;28;20042;-65
2023/10/24 04:56:06;;;;;;;0.30;0.30;;;11.50;99.90;;;;;;4988528;28;20053;-65
2023/10/24 04:58:31;;;;;;;0.15;0.15;;;11.50;99.90;;;;;;4984626;28;20054;-65
2023/10/24 05:00:57;;;;;;;1.60;0.35;;;11.50;99.90;;;;;;4981768;28;20062;-65
2023/10/24 05:03:23;;;;;;;0.10;0.10;;;11.50;99.90;;;;;;4988735;28;20038;-66
2023/10/24 05:05:48;;;;;;;0.20;0.20;;;11.50;99.90;;;;;;4982841;28;20042;-65
2023/10/24 05:08:14;;;;;;;0.13;0.13;;;11.50;99.90;;;;;;4988077;28;20039;-65
2023/10/24 05:10:39;;;;;;;0.10;0.10;;;11.60;99.90;;;;;;4982222;28;20088;-66
2023/10/24 05:13:06;;;;;;;0.08;0.08;;;11.60;99.90;;;;;;4986586;28;20137;-66
2023/10/24 05:15:31;;;;;;;0.10;0.10;;;11.60;99.90;;;;;;4984292;28;20053;-65
2023/10/24 05:17:57;;;;;;;0.52;0.52;;;11.60;99.90;;;;;;4983146;28;20038;-66
2023/10/24 05:20:23;;;;;;;0.10;0.10;;;11.70;99.90;;;;;;4981335;28;20043;-65
2023/10/24 05:22:48;;;;;;;2.28;0.82;;;11.70;99.90;;;;;;4980148;28;20042;-65
2023/10/24 05:25:15;;;;;;;0.10;0.10;;;11.70;99.90;;;;;;4988602;28;20046;-66
2023/10/24 05:27:41;;;;;;;0.08;0.08;;;11.70;99.90;;;;;;4983494;28;20042;-65
2023/10/24 05:30:07;;;;;;;0.10;0.10;;;11.70;99.90;;;;;;4985515;28;20046;-65
2023/10/24 05:32:34;;;;;;;0.22;0.22;;;11.70;99.90;;;;;;4989480;28;20046;-66
2023/10/24 05:34:59;;;;;;;0.20;0.20;;;11.70;99.90;;;;;;4990033;28;20046;-65
2023/10/24 05:37:25;;;;;;;0.10;0.10;;;11.80;99.90;;;;;;4981727;28;20517;-65
2023/10/24 05:39:50;;;;;;;0.38;0.38;;;11.70;99.90;;;;;;4985557;28;20422;-65
2023/10/24 05:42:16;;;;;;;0.10;0.10;;;11.80;99.90;;;;;;4990815;28;20074;-66
2023/10/24 05:44:41;;;;;;;0.30;0.30;;;11.80;99.90;;;;;;4984962;28;20046;-65
2023/10/24 05:47:07;;;;;;;0.30;0.30;;;11.80;99.90;;;;;;4991661;28;20074;-65
2023/10/24 05:49:34;;;;;;;0.10;0.10;;;11.80;99.90;;;;;;4992968;28;20034;-66
2023/10/24 05:52:00;;;;;;;0.10;0.10;;;11.80;99.90;;;;;;4993436;28;20489;-66
2023/10/24 05:54:25;;;;;;;0.13;0.13;;;11.80;99.90;;;;;;4986009;28;20125;-65
2023/10/24 05:56:51;;;;;;;0.13;0.13;;;11.80;99.90;;;;;;4988413;28;20038;-66
2023/10/24 05:59:16;;;;;;;0.75;0.75;;;11.80;99.90;;;;;;4982489;28;20132;-66
2023/10/24 06:01:42;;;;;;;0.10;0.10;;;11.80;99.90;;;;;;4981735;28;20084;-65
2023/10/24 06:04:07;;;;;;;0.10;0.10;;;11.90;99.90;;;;;;4992725;28;20050;-65
2023/10/24 06:06:33;;;;;;;0.45;0.43;;;11.90;99.90;;;;;;4987462;28;20078;-65
2023/10/24 06:08:59;;;;;;;0.77;0.47;;;11.90;99.90;;;;;;4983182;28;20042;-66
2023/10/24 06:11:24;;;;;;;0.10;0.10;;;11.90;99.90;;;;;;4985127;28;20042;-65
2023/10/24 06:13:50;;;;;;;0.00;0.00;;;11.90;99.90;;;;;;4986410;28;20054;-66
2023/10/24 06:16:17;;;;;;;0.22;0.22;;;11.90;99.90;;;;;;4985714;28;20122;-65
2023/10/24 06:18:43;;;;;;;0.00;0.00;;;11.80;99.90;;;;;;4980362;28;20559;-65
2023/10/24 06:21:11;;;;;;;0.10;0.10;;;11.90;99.90;;;;;;4979282;28;20072;-65
2023/10/24 06:23:38;;;;;;;0.10;0.10;;;11.90;99.90;;;;;;4984118;28;20080;-65
2023/10/24 06:26:04;;;;;;;0.10;0.10;;;11.90;99.90;;;;;;4990451;28;20050;-65
2023/10/24 06:28:29;;;;;;;0.08;0.08;;;11.90;99.90;;;;;;4986149;28;20126;-65
2023/10/24 06:31:00;;;;;;;0.00;0.00;;;11.90;99.90;;;;;;4989749;28;20121;-66
2023/10/24 06:33:29;;;;;;;0.63;0.40;;;11.90;99.90;;;;;;4985688;28;20058;-65
2023/10/24 06:35:56;;;;;;;0.10;0.10;;;11.90;99.90;;;;;;4990191;28;20092;-65
2023/10/24 06:38:22;;;;;;;0.10;0.10;;;11.90;99.90;;;;;;4992296;28;20050;-65
2023/10/24 06:40:48;;;;;;;0.10;0.10;;;11.90;99.90;;;;;;4986302;28;20026;-65
2023/10/24 06:43:13;;;;;;;0.03;0.03;;;11.90;99.90;;;;;;4982597;28;20074;-65
2023/10/24 06:45:41;;;;;;;0.10;0.10;;;11.90;99.90;;;;;;4990574;28;20054;-65
2023/10/24 06:48:06;;;;;;;0.08;0.08;;;11.90;99.90;;;;;;4990604;28;20046;-65
2023/10/24 06:50:35;;;;;;;0.32;0.32;;;12.00;99.90;;;;;;4993543;28;20057;-65
2023/10/24 06:53:01;;;;;;;0.10;0.10;;;11.90;99.90;;;;;;4990913;28;20049;-65
2023/10/24 06:55:26;;;;;;;0.10;0.10;;;12.00;99.90;;;;;;5006294;28;20046;-65
2023/10/24 06:57:52;;;;;;;0.32;0.30;;;11.90;99.90;;;;;;4981892;28;20058;-66
2023/10/24 07:00:20;;;;;;;0.10;0.10;;;11.90;99.90;;;;;;4988672;28;20050;-65
2023/10/24 07:02:46;;;;;;;0.45;0.45;;;11.90;99.90;;;;;;4980605;28;20047;-65
2023/10/24 07:05:11;;;;;;;0.03;0.03;;;11.90;99.90;;;;;;4988099;28;20050;-65
2023/10/24 07:07:38;;;;;;;0.55;0.40;;;11.90;99.90;;;;;;4978230;28;20055;-65
2023/10/24 07:10:07;;;;;;;0.20;0.20;;;11.90;99.90;;;;;;4982765;28;20410;-65
2023/10/24 07:12:33;;;;;;;0.10;0.10;;;11.90;99.90;;;;;;4988619;28;20046;-66
2023/10/24 07:14:59;;;;;;;0.30;0.30;;;11.90;99.90;;;;;;4997718;28;20512;-66
2023/10/24 07:17:25;;;;;;;0.08;0.08;;;11.90;99.90;;;;;;4987144;28;20038;-66
2023/10/24 07:19:50;;;;;;;0.10;0.10;;;11.90;99.90;;;;;;4977529;28;20050;-65
2023/10/24 07:22:16;;;;;;;0.52;0.52;;;11.90;99.90;;;;;;4984833;28;20039;-65
2023/10/24 07:24:41;;;;;;;0.10;0.10;;;11.90;99.90;;;;;;4983425;28;20034;-66
2023/10/24 07:27:08;;;;;;;0.00;0.00;;;11.80;99.90;;;;;;4986675;28;20181;-65
2023/10/24 07:29:34;;;;;;;0.20;0.20;;;11.80;99.90;;;;;;4986815;28;20042;-65
2023/10/24 07:31:59;;;;;;;0.00;0.00;;;11.80;99.90;;;;;;4991711;28;20117;-65
2023/10/24 07:34:25;;;;;;;0.10;0.10;;;11.80;99.90;;;;;;4981531;28;20042;-65
2023/10/24 07:36:51;;;;;;;0.50;0.50;;;11.80;99.90;;;;;;4989671;28;20054;-65
2023/10/24 07:39:16;;;;;;;0.45;0.45;;;11.80;99.90;;;;;;4984216;28;20046;-65
2023/10/24 07:41:42;;;;;;;0.30;0.30;;;11.80;99.90;;;;;;4983809;28;20063;-65
2023/10/24 07:44:07;;;;;;;0.00;0.00;;;11.90;99.90;;;;;;5004051;28;20045;-65
2023/10/24 07:46:33;;;;;;;0.10;0.10;;;11.80;99.90;;;;;;4985460;28;20038;-65
2023/10/24 07:48:59;;;;;;;0.10;0.10;;;11.80;99.90;;;;;;4983055;28;20054;-65
2023/10/24 07:51:27;;;;;;;0.32;0.32;;;11.80;99.90;;;;;;4988325;28;20038;-66
2023/10/24 07:53:53;;;;;;;0.82;0.82;;;11.70;99.90;;;;;;4983566;28;20052;-66
2023/10/24 07:56:19;;;;;;;0.50;0.50;;;11.80;99.90;;;;;;4983553;28;20066;-66
2023/10/24 07:58:45;;;;;;;0.15;0.15;;;11.70;99.90;;;;;;4985246;28;20484;-65
2023/10/24 08:01:11;;;;;;;0.20;0.20;;;11.80;99.90;;;;;;4989461;28;20050;-65
2023/10/24 08:03:36;;;;;;;0.73;0.73;;;11.80;99.90;;;;;;4984154;28;20118;-65
2023/10/24 08:06:03;;;;;;;0.10;0.10;;;11.70;99.90;;;;;;4989250;28;20044;-66
2023/10/24 08:08:29;;;;;;;0.30;0.30;;;11.80;99.90;;;;;;4990632;28;20054;-65
2023/10/24 08:10:55;;;;;;;0.00;0.00;;;11.80;99.90;;;;;;4979406;28;20096;-65
2023/10/24 08:13:21;;;;;;;0.08;0.08;;;11.80;99.90;;;;;;4983462;28;20133;-65
2023/10/24 08:15:50;;;;;;;0.10;0.10;;;11.70;99.90;;;;;;4990199;28;20441;-65
2023/10/24 08:18:15;;;;;;;0.88;0.88;;;11.70;99.90;;;;;;4987771;28;20394;-65
2023/10/24 08:20:41;;;;;;;0.35;0.35;;;11.80;99.90;;;;;;4979594;28;20066;-65
2023/10/24 08:23:06;;;;;;;0.38;0.38;;;11.80;99.90;;;;;;4983911;28;20513;-64
2023/10/24 08:25:32;;;;;;;0.20;0.20;;;11.80;99.90;;;;;;4986937;28;20061;-65
2023/10/24 08:27:58;;;;;;;0.10;0.10;;;11.80;99.90;;;;;;4990805;28;20041;-65
2023/10/24 08:30:23;;;;;;;0.10;0.10;;;11.80;99.90;;;;;;4980595;28;20043;-65
2023/10/24 08:32:49;;;;;;;0.10;0.10;;;11.80;99.90;;;;;;4981150;28;20248;-65
2023/10/24 08:35:14;;;;;;;0.40;0.40;;;11.80;99.90;;;;;;4991098;28;20478;-65
2023/10/24 08:37:40;;;;;;;3.33;1.55;;;11.80;99.90;;;;;;4986301;28;20574;-65
2023/10/24 08:40:06;;;;;;;0.75;0.45;;;11.80;99.90;;;;;;4980925;28;20050;-65
2023/10/24 08:42:33;;;;;;;0.20;0.20;;;11.80;99.90;;;;;;4987948;28;20109;-66
2023/10/24 08:44:59;;;;;;;0.03;0.03;;;11.80;99.90;;;;;;4990440;28;20379;-65
2023/10/24 08:47:27;;;;;;;0.10;0.10;;;11.80;99.90;;;;;;4980187;28;20042;-65
2023/10/24 08:49:54;;;;;;;0.55;0.55;;;11.90;99.90;;;;;;4989460;28;20447;-65
2023/10/24 08:52:20;;;;;;;0.38;0.38;;;11.90;99.90;;;;;;4980754;28;20049;-65
2023/10/24 08:54:45;;;;;;;0.30;0.30;;;11.90;99.90;;;;;;4989150;28;20050;-65
2023/10/24 08:57:13;;;;;;;4.03;2.40;;;11.90;99.90;;;;;;4987838;28;20176;-65
2023/10/24 08:59:40;;;;;;;0.20;0.20;;;11.90;99.90;;;;;;4983891;28;20133;-65
2023/10/24 09:02:10;;;;;;;0.35;0.35;;;11.90;99.90;;;;;;4978694;28;20077;-65
2023/10/24 09:04:38;;;;;;;0.20;0.20;;;11.90;99.90;;;;;;4989657;28;20042;-65
2023/10/24 09:07:04;;;;;;;0.13;0.13;;;11.90;99.90;;;;;;4989936;28;20513;-65
2023/10/24 09:09:29;;;;;;;0.28;0.28;;;11.90;99.90;;;;;;4979449;28;20046;-65
2023/10/24 09:12:00;;;;;;;0.90;0.90;;;12.00;99.90;;;;;;4989236;28;20482;-65
2023/10/24 09:14:30;;;;;;;0.10;0.10;;;12.00;99.90;;;;;;4985147;28;20047;-65
2023/10/24 09:17:00;;;;;;;0.95;0.52;;;12.00;99.90;;;;;;4989897;28;20487;-65
2023/10/24 09:19:27;;;;;;;1.23;0.68;;;12.00;99.90;;;;;;4984471;28;20047;-65
2023/10/24 09:21:53;;;;;;;0.15;0.15;;;12.00;99.90;;;;;;4991535;28;20046;-65
2023/10/24 09:24:19;;;;;;;0.20;0.20;;;12.00;99.90;;;;;;4993771;28;20548;-65
2023/10/24 09:26:59;;;;;;;0.77;0.32;;;11.90;99.90;;;;;;4989962;28;20038;-65
2023/10/24 09:29:26;;;;;;;0.05;0.05;;;12.00;99.90;;;;;;4978587;28;20055;-65
2023/10/24 09:31:53;;;;;;;0.55;0.55;;;12.00;99.90;;;;;;4988588;28;20379;-65
2023/10/24 09:34:19;;;;;;;0.30;0.30;;;12.00;99.90;;;;;;4993566;28;20038;-65
2023/10/24 09:36:45;;;;;;;0.32;0.32;;;12.00;99.90;;;;;;4982132;28;20086;-65
2023/10/24 09:39:15;;;;;;;0.52;0.52;;;12.00;99.90;;;;;;4992830;28;20038;-65
2023/10/24 09:41:45;;;;;;;0.10;0.10;;;12.00;99.90;;;;;;4993235;28;20053;-65
2023/10/24 09:44:11;;;;;;;0.50;0.50;;;12.00;99.90;;;;;;4993232;28;20046;-65
2023/10/24 09:46:37;;;;;;;0.20;0.20;;;12.10;99.90;;;;;;4986534;28;20088;-65
2023/10/24 09:49:07;;;;;;;0.38;0.38;;;12.10;99.90;;;;;;4991933;28;20375;-65
2023/10/24 09:51:37;;;;;;;0.10;0.10;;;12.10;99.90;;;;;;4984868;28;20066;-65
2023/10/24 09:54:04;;;;;;;0.10;0.10;;;12.10;99.90;;;;;;4987940;28;21030;-65
2023/10/24 09:56:31;;;;;;;1.00;0.88;;;12.10;99.90;;;;;;4991874;28;20077;-65
2023/10/24 09:58:58;;;;;;;0.38;0.38;;;12.10;99.90;;;;;;4983827;28;20051;-65
2023/10/24 10:01:26;;;;;;;0.68;0.68;;;12.00;99.90;;;;;;4985544;28;20038;-65
2023/10/24 10:03:55;;;;;;;0.28;0.28;;;12.10;99.90;;;;;;4990612;28;20046;-64
2023/10/24 10:06:21;;;;;;;0.75;0.68;;;12.10;99.90;;;;;;4990504;28;20099;-65
2023/10/24 10:08:49;;;;;;;0.17;0.17;;;12.10;99.90;;;;;;4977694;28;20090;-64
2023/10/24 10:11:15;;;;;;;0.30;0.30;;;12.10;99.90;;;;;;4990987;28;20047;-65
2023/10/24 10:13:53;;;;;;;2.53;0.75;;;12.10;99.90;;;;;;4991904;28;20125;-65
2023/10/24 10:16:34;;;;;;;0.15;0.15;;;12.00;99.90;;;;;;4983496;28;20043;-65
2023/10/24 10:19:08;;;;;;;0.05;0.05;;;12.10;99.90;;;;;;4987282;28;20074;-65
2023/10/24 10:22:05;;;;;;;1.30;0.65;;;12.20;99.90;;;;;;4991119;28;20046;-65
2023/10/24 10:25:01;;;;;;;0.10;0.10;;;12.20;99.90;;;;;;4989931;28;20092;-65
2023/10/24 10:27:51;;;;;;;0.63;0.63;;;12.20;99.90;;;;;;4978770;28;20447;-65
2023/10/24 10:30:47;;;;;;;1.15;1.10;;;12.20;99.90;;;;;;4977860;28;20491;-65
2023/10/24 10:33:18;;;;;;;1.50;1.40;;;12.20;99.90;;;;;;4981957;28;20512;-65
2023/10/24 10:35:48;;;;;;;0.28;0.28;;;12.30;99.90;;;;;;4991635;28;20379;-65
2023/10/24 10:38:24;;;;;;;0.43;0.43;;;12.30;99.90;;;;;;4982343;28;20053;-64
2023/10/24 10:40:50;;;;;;;0.22;0.22;;;12.20;99.90;;;;;;4991278;28;20066;-65
2023/10/24 10:43:31;;;;;;;0.88;0.85;;;12.20;99.90;;;;;;4986885;28;20043;-65
2023/10/24 10:46:16;;;;;;;1.85;1.42;;;12.20;99.90;;;;;;4989760;28;20070;-64
2023/10/24 10:48:42;;;;;;;0.65;0.65;;;12.20;99.90;;;;;;4991699;28;20050;-64
2023/10/24 10:51:11;;;;;;;0.20;0.20;;;12.20;99.90;;;;;;4984856;28;20498;-64
2023/10/24 10:53:46;;;;;;;0.10;0.10;;;12.20;99.90;;;;;;4991070;28;20054;-65
2023/10/24 10:56:25;;;;;;;0.28;0.28;;;12.20;99.90;;;;;;4983361;28;20097;-65
2023/10/24 10:59:06;;;;;;;0.20;0.20;;;12.20;99.90;;;;;;4987022;28;20065;-65
2023/10/24 11:01:52;;;;;;;0.40;0.40;;;12.20;99.90;;;;;;4980249;28;20411;-65
2023/10/24 11:04:18;;;;;;;4.72;3.42;;;12.20;99.90;;;;;;4989661;28;20054;-65
2023/10/24 11:06:50;;;;;;;0.50;0.50;;;12.20;99.90;;;;;;4991647;28;20057;-65
2023/10/24 11:09:16;;;;;;;0.68;0.68;;;12.20;99.90;;;;;;4981860;28;20058;-65
2023/10/24 11:11:41;;;;;;;1.00;0.85;;;12.30;99.90;;;;;;4989069;28;20406;-65
2023/10/24 11:14:20;;;;;;;1.85;1.00;;;12.30;99.90;;;;;;4989657;28;20655;-65
2023/10/24 11:16:48;;;;;;;0.10;0.10;;;12.30;99.90;;;;;;4987762;28;20061;-65
2023/10/24 11:19:27;;;;;;;0.20;0.20;;;12.30;99.90;;;;;;4991084;28;20050;-65
2023/10/24 11:21:54;;;;;;;0.30;0.30;;;12.30;99.90;;;;;;4973739;28;20043;-65
2023/10/24 11:24:21;;;;;;;0.68;0.35;;;12.40;99.90;;;;;;4988990;28;20543;-65
2023/10/24 11:26:57;;;;;;;0.10;0.10;;;12.40;99.90;;;;;;4987643;28;20498;-65
2023/10/24 11:29:23;;;;;;;0.20;0.20;;;12.40;99.90;;;;;;4988622;28;20375;-65
2023/10/24 11:31:49;;;;;;;0.60;0.60;;;12.40;99.90;;;;;;4981977;28;20057;-65
2023/10/24 11:34:15;;;;;;;0.40;0.40;;;12.40;99.90;;;;;;4991566;28;20046;-65
2023/10/24 11:36:43;;;;;;;0.10;0.10;;;12.30;99.90;;;;;;4986704;28;20501;-65
2023/10/24 11:39:09;;;;;;;0.38;0.38;;;12.30;99.90;;;;;;4980685;28;20051;-65
2023/10/24 11:41:36;;;;;;;0.57;0.57;;;12.40;99.90;;;;;;4984155;28;20034;-65
2023/10/24 11:44:01;;;;;;;0.22;0.22;;;12.30;99.90;;;;;;4986149;28;20046;-65
2023/10/24 11:46:27;;;;;;;0.30;0.30;;;12.40;99.90;;;;;;4981234;28;20038;-65
2023/10/24 11:48:52;;;;;;;0.57;0.57;;;12.40;99.90;;;;;;4980795;28;20106;-65
2023/10/24 11:51:18;;;;;;;0.15;0.15;;;12.40;99.90;;;;;;4990876;28;20042;-65
2023/10/24 11:53:44;;;;;;;0.65;0.65;;;12.40;99.90;;;;;;4985754;28;20038;-66
2023/10/24 11:56:10;;;;;;;0.15;0.15;;;12.40;99.90;;;;;;4988866;28;20133;-66
2023/10/24 11:58:35;;;;;;;0.20;0.20;;;12.40;99.90;;;;;;4984656;28;20141;-65
2023/10/24 12:01:02;;;;;;;0.30;0.30;;;12.40;99.90;;;;;;4988025;28;20125;-65
2023/10/24 12:03:47;;;;;;;0.22;0.22;;;12.40;99.90;;;;;;4991451;28;20402;-65
2023/10/24 12:06:16;;;;;;;0.45;0.45;;;12.40;99.90;;;;;;4991487;28;20078;-65
2023/10/24 12:08:43;;;;;;;0.70;0.70;;;12.40;99.90;;;;;;4976290;28;20079;-65
2023/10/24 12:11:10;;;;;;;0.73;0.73;;;12.40;99.90;;;;;;4983375;28;20082;-65
2023/10/24 12:13:36;;;;;;;0.45;0.45;;;12.40;99.90;;;;;;4985224;28;20099;-65
2023/10/24 12:16:02;;;;;;;0.10;0.10;;;12.40;99.90;;;;;;4989013;28;20038;-65
2023/10/24 12:18:29;;;;;;;4.90;1.92;;;12.40;99.90;;;;;;4977577;28;20034;-65
2023/10/24 12:20:55;;;;;;;0.10;0.10;;;12.40;99.90;;;;;;4986796;28;20050;-64
2023/10/24 12:23:21;;;;;;;0.10;0.10;;;12.40;99.90;;;;;;4983738;28;20418;-65
2023/10/24 12:25:47;;;;;;;0.40;0.40;;;12.40;99.90;;;;;;4982141;28;20049;-65
2023/10/24 12:28:13;;;;;;;2.92;1.17;;;12.40;99.90;;;;;;4989882;28;20042;-65
2023/10/24 12:30:38;;;;;;;0.55;0.47;;;12.40;99.90;;;;;;4986588;28;20049;-65
2023/10/24 12:33:04;;;;;;;0.30;0.30;;;12.40;99.90;;;;;;4977887;28;20046;-65
2023/10/24 12:35:29;;;;;;;0.30;0.30;;;12.40;99.90;;;;;;4987016;28;20049;-65
2023/10/24 12:37:55;;;;;;;2.40;1.05;;;12.40;99.90;;;;;;4982490;28;20042;-65
2023/10/24 12:40:20;;;;;;;0.15;0.15;;;12.30;99.90;;;;;;4983864;28;20046;-65
2023/10/24 12:42:46;;;;;;;0.52;0.47;;;12.30;99.90;;;;;;4989656;28;20504;-65
2023/10/24 12:45:12;;;;;;;0.20;0.20;;;12.30;99.90;;;;;;4989825;28;20100;-65
2023/10/24 12:47:37;;;;;;;0.10;0.10;;;12.30;99.90;;;;;;4975623;28;20045;-65